sensor_id;sensor_type;location;lat;lon;timestamp;temperature;humidity
28654;DHT22;24320;56.980;24.336;2024-03-07T00:00:29;-5.20;99.90
28654;DHT22;24320;56.980;24.336;2024-03-07T00:02:56;-5.20;99.90
28654;DHT22;24320;56.980;24.336;2024-03-07T00:05:23;-5.20;99.90
28654;DHT22;24320;56.980;24.336;2024-03-07T00:07:54;-5.20;99.90
28654;DHT22;24320;56.980;24.336;2024-03-07T00:10:21;-5.30;99.90
28654;DHT22;24320;56.980;24.336;2024-03-07T00:12:48;-5.20;99.90
28654;DHT22;24320;56.980;24.336;2024-03-07T00:15:15;-5.20;99.90
28654;DHT22;24320;56.980;24.336;2024-03-07T00:17:42;-5.20;99.90
28654;DHT22;24320;56.980;24.336;2024-03-07T00:20:10;-5.20;99.90
28654;DHT22;24320;56.980;24.336;2024-03-07T00:22:47;-5.20;99.90
28654;DHT22;24320;56.980;24.336;2024-03-07T00:25:14;-5.20;99.90
28654;DHT22;24320;56.980;24.336;2024-03-07T00:27:46;-5.20;99.90
28654;DHT22;24320;56.980;24.336;2024-03-07T00:30:13;-5.30;99.90
28654;DHT22;24320;56.980;24.336;2024-03-07T00:32:40;-5.30;99.90
28654;DHT22;24320;56.980;24.336;2024-03-07T00:35:08;-5.30;99.90
28654;DHT22;24320;56.980;24.336;2024-03-07T00:37:38;-5.40;99.90
28654;DHT22;24320;56.980;24.336;2024-03-07T00:40:05;-5.40;99.90
28654;DHT22;24320;56.980;24.336;2024-03-07T00:42:33;-5.40;99.90
28654;DHT22;24320;56.980;24.336;2024-03-07T00:45:00;-5.40;99.90
28654;DHT22;24320;56.980;24.336;2024-03-07T00:47:28;-5.40;99.90
28654;DHT22;24320;56.980;24.336;2024-03-07T00:49:55;-5.40;99.90
28654;DHT22;24320;56.980;24.336;2024-03-07T00:52:22;-5.40;99.90
28654;DHT22;24320;56.980;24.336;2024-03-07T00:54:49;-5.40;99.90
28654;DHT22;24320;56.980;24.336;2024-03-07T00:57:16;-5.50;99.90
28654;DHT22;24320;56.980;24.336;2024-03-07T00:59:43;-5.50;99.90
28654;DHT22;24320;56.980;24.336;2024-03-07T01:02:10;-5.50;99.90
28654;DHT22;24320;56.980;24.336;2024-03-07T01:04:37;-5.50;99.90
28654;DHT22;24320;56.980;24.336;2024-03-07T01:07:04;-5.60;99.90
28654;DHT22;24320;56.980;24.336;2024-03-07T01:09:31;-5.50;99.90
28654;DHT22;24320;56.980;24.336;2024-03-07T01:11:58;-5.50;99.90
28654;DHT22;24320;56.980;24.336;2024-03-07T01:14:30;-5.50;99.90
28654;DHT22;24320;56.980;24.336;2024-03-07T01:16:57;-5.50;99.90
28654;DHT22;24320;56.980;24.336;2024-03-07T01:19:24;-5.60;99.90
28654;DHT22;24320;56.980;24.336;2024-03-07T01:21:51;-5.60;99.90
28654;DHT22;24320;56.980;24.336;2024-03-07T01:24:18;-5.60;99.90
28654;DHT22;24320;56.980;24.336;2024-03-07T01:26:47;-5.70;99.90
28654;DHT22;24320;56.980;24.336;2024-03-07T01:29:15;-5.70;99.90
28654;DHT22;24320;56.980;24.336;2024-03-07T01:31:42;-5.70;99.90
28654;DHT22;24320;56.980;24.336;2024-03-07T01:34:10;-5.70;99.90
28654;DHT22;24320;56.980;24.336;2024-03-07T01:36:37;-5.70;99.90
28654;DHT22;24320;56.980;24.336;2024-03-07T01:39:04;-5.70;99.90
28654;DHT22;24320;56.980;24.336;2024-03-07T01:41:31;-5.70;99.90
28654;DHT22;24320;56.980;24.336;2024-03-07T01:44:01;-5.70;99.90
28654;DHT22;24320;56.980;24.336;2024-03-07T01:46:29;-5.70;99.90
28654;DHT22;24320;56.980;24.336;2024-03-07T01:48:57;-5.70;99.90
28654;DHT22;24320;56.980;24.336;2024-03-07T01:51:24;-5.70;99.90
28654;DHT22;24320;56.980;24.336;2024-03-07T01:53:52;-5.70;99.90
28654;DHT22;24320;56.980;24.336;2024-03-07T01:56:20;-5.70;99.90
28654;DHT22;24320;56.980;24.336;2024-03-07T01:58:47;-5.80;99.90
28654;DHT22;24320;56.980;24.336;2024-03-07T02:01:15;-5.80;99.90
28654;DHT22;24320;56.980;24.336;2024-03-07T02:03:42;-5.80;99.90
28654;DHT22;24320;56.980;24.336;2024-03-07T02:06:10;-5.80;99.90
28654;DHT22;24320;56.980;24.336;2024-03-07T02:08:38;-5.80;99.90
28654;DHT22;24320;56.980;24.336;2024-03-07T02:11:05;-5.80;99.90
28654;DHT22;24320;56.980;24.336;2024-03-07T02:13:32;-5.80;99.90
28654;DHT22;24320;56.980;24.336;2024-03-07T02:15:59;-5.80;99.90
28654;DHT22;24320;56.980;24.336;2024-03-07T02:18:26;-5.90;99.90
28654;DHT22;24320;56.980;24.336;2024-03-07T02:20:54;-5.90;99.90
28654;DHT22;24320;56.980;24.336;2024-03-07T02:23:22;-5.80;99.90
28654;DHT22;24320;56.980;24.336;2024-03-07T02:25:49;-5.80;99.90
28654;DHT22;24320;56.980;24.336;2024-03-07T02:28:16;-5.90;99.90
28654;DHT22;24320;56.980;24.336;2024-03-07T02:30:43;-5.90;99.90
28654;DHT22;24320;56.980;24.336;2024-03-07T02:33:12;-5.90;99.90
28654;DHT22;24320;56.980;24.336;2024-03-07T02:35:39;-5.90;99.90
28654;DHT22;24320;56.980;24.336;2024-03-07T02:38:06;-6.00;99.90
28654;DHT22;24320;56.980;24.336;2024-03-07T02:40:33;-6.00;99.90
28654;DHT22;24320;56.980;24.336;2024-03-07T02:43:00;-6.00;99.90
28654;DHT22;24320;56.980;24.336;2024-03-07T02:45:31;-6.00;99.90
28654;DHT22;24320;56.980;24.336;2024-03-07T02:47:58;-6.00;99.90
28654;DHT22;24320;56.980;24.336;2024-03-07T02:50:25;-6.00;99.90
28654;DHT22;24320;56.980;24.336;2024-03-07T02:52:52;-6.00;99.90
28654;DHT22;24320;56.980;24.336;2024-03-07T02:55:19;-6.00;99.90
28654;DHT22;24320;56.980;24.336;2024-03-07T02:57:48;-6.10;99.90
28654;DHT22;24320;56.980;24.336;2024-03-07T03:00:15;-6.10;99.90
28654;DHT22;24320;56.980;24.336;2024-03-07T03:02:53;-6.10;99.90
28654;DHT22;24320;56.980;24.336;2024-03-07T03:05:21;-6.10;99.90
28654;DHT22;24320;56.980;24.336;2024-03-07T03:07:49;-6.10;99.90
28654;DHT22;24320;56.980;24.336;2024-03-07T03:10:24;-6.20;99.90
28654;DHT22;24320;56.980;24.336;2024-03-07T03:12:57;-6.20;99.90
28654;DHT22;24320;56.980;24.336;2024-03-07T03:15:26;-6.20;99.90
28654;DHT22;24320;56.980;24.336;2024-03-07T03:17:53;-6.20;99.90
28654;DHT22;24320;56.980;24.336;2024-03-07T03:20:21;-6.20;99.90
28654;DHT22;24320;56.980;24.336;2024-03-07T03:22:52;-6.20;99.90
28654;DHT22;24320;56.980;24.336;2024-03-07T03:25:40;-6.20;99.90
28654;DHT22;24320;56.980;24.336;2024-03-07T03:28:08;-6.10;99.90
28654;DHT22;24320;56.980;24.336;2024-03-07T03:30:40;-6.10;99.90
28654;DHT22;24320;56.980;24.336;2024-03-07T03:33:10;-6.10;99.90
28654;DHT22;24320;56.980;24.336;2024-03-07T03:35:39;-6.10;99.90
28654;DHT22;24320;56.980;24.336;2024-03-07T03:38:07;-6.10;99.90
28654;DHT22;24320;56.980;24.336;2024-03-07T03:40:35;-6.10;99.90
28654;DHT22;24320;56.980;24.336;2024-03-07T03:43:02;-6.10;99.90
28654;DHT22;24320;56.980;24.336;2024-03-07T03:45:29;-6.10;99.90
28654;DHT22;24320;56.980;24.336;2024-03-07T03:47:58;-6.10;99.90
28654;DHT22;24320;56.980;24.336;2024-03-07T03:50:26;-6.10;99.90
28654;DHT22;24320;56.980;24.336;2024-03-07T03:52:53;-6.10;99.90
28654;DHT22;24320;56.980;24.336;2024-03-07T03:55:20;-6.10;99.90
28654;DHT22;24320;56.980;24.336;2024-03-07T03:57:47;-6.10;99.90
28654;DHT22;24320;56.980;24.336;2024-03-07T04:00:16;-6.10;99.90
28654;DHT22;24320;56.980;24.336;2024-03-07T04:02:44;-6.10;99.90
28654;DHT22;24320;56.980;24.336;2024-03-07T04:05:16;-6.00;99.90
28654;DHT22;24320;56.980;24.336;2024-03-07T04:07:43;-5.90;99.90
28654;DHT22;24320;56.980;24.336;2024-03-07T04:10:11;-5.90;99.90
28654;DHT22;24320;56.980;24.336;2024-03-07T04:12:40;-5.80;99.90
28654;DHT22;24320;56.980;24.336;2024-03-07T04:15:09;-5.80;99.90
28654;DHT22;24320;56.980;24.336;2024-03-07T04:17:36;-5.60;99.90
28654;DHT22;24320;56.980;24.336;2024-03-07T04:20:05;-5.70;99.90
28654;DHT22;24320;56.980;24.336;2024-03-07T04:22:33;-5.70;99.90
28654;DHT22;24320;56.980;24.336;2024-03-07T04:25:02;-5.70;99.90
28654;DHT22;24320;56.980;24.336;2024-03-07T04:27:29;-5.80;99.90
28654;DHT22;24320;56.980;24.336;2024-03-07T04:29:57;-5.80;99.90
28654;DHT22;24320;56.980;24.336;2024-03-07T04:32:24;-5.80;99.90
28654;DHT22;24320;56.980;24.336;2024-03-07T04:34:51;-5.90;99.90
28654;DHT22;24320;56.980;24.336;2024-03-07T04:37:18;-5.90;99.90
28654;DHT22;24320;56.980;24.336;2024-03-07T04:39:45;-5.90;99.90
28654;DHT22;24320;56.980;24.336;2024-03-07T04:42:12;-5.80;99.90
28654;DHT22;24320;56.980;24.336;2024-03-07T04:44:39;-5.80;99.90
28654;DHT22;24320;56.980;24.336;2024-03-07T04:47:07;-5.90;99.90
28654;DHT22;24320;56.980;24.336;2024-03-07T04:49:34;-5.90;99.90
28654;DHT22;24320;56.980;24.336;2024-03-07T04:52:03;-5.90;99.90
28654;DHT22;24320;56.980;24.336;2024-03-07T04:54:31;-6.00;99.90
28654;DHT22;24320;56.980;24.336;2024-03-07T04:57:01;-6.00;99.90
28654;DHT22;24320;56.980;24.336;2024-03-07T04:59:28;-6.00;99.90
28654;DHT22;24320;56.980;24.336;2024-03-07T05:01:56;-6.00;99.90
28654;DHT22;24320;56.980;24.336;2024-03-07T05:04:23;-6.00;99.90
28654;DHT22;24320;56.980;24.336;2024-03-07T05:06:50;-6.00;99.90
28654;DHT22;24320;56.980;24.336;2024-03-07T05:09:17;-6.00;99.90
28654;DHT22;24320;56.980;24.336;2024-03-07T05:11:53;-6.00;99.90
28654;DHT22;24320;56.980;24.336;2024-03-07T05:14:21;-5.90;99.90
28654;DHT22;24320;56.980;24.336;2024-03-07T05:16:52;-5.90;99.90
28654;DHT22;24320;56.980;24.336;2024-03-07T05:19:33;-5.90;99.90
28654;DHT22;24320;56.980;24.336;2024-03-07T05:22:01;-5.80;99.90
28654;DHT22;24320;56.980;24.336;2024-03-07T05:24:28;-5.70;99.90
28654;DHT22;24320;56.980;24.336;2024-03-07T05:26:55;-5.60;99.90
28654;DHT22;24320;56.980;24.336;2024-03-07T05:29:25;-5.60;99.90
28654;DHT22;24320;56.980;24.336;2024-03-07T05:31:52;-5.50;99.90
28654;DHT22;24320;56.980;24.336;2024-03-07T05:34:19;-5.30;99.90
28654;DHT22;24320;56.980;24.336;2024-03-07T05:36:47;-5.20;99.90
28654;DHT22;24320;56.980;24.336;2024-03-07T05:39:15;-5.10;99.90
28654;DHT22;24320;56.980;24.336;2024-03-07T05:41:43;-5.00;99.90
28654;DHT22;24320;56.980;24.336;2024-03-07T05:44:13;-4.80;99.90
28654;DHT22;24320;56.980;24.336;2024-03-07T05:46:41;-4.90;99.90
28654;DHT22;24320;56.980;24.336;2024-03-07T05:49:13;-4.80;99.90
28654;DHT22;24320;56.980;24.336;2024-03-07T05:51:41;-4.70;99.90
28654;DHT22;24320;56.980;24.336;2024-03-07T05:54:08;-4.60;99.90
28654;DHT22;24320;56.980;24.336;2024-03-07T05:56:36;-4.40;99.90
28654;DHT22;24320;56.980;24.336;2024-03-07T05:59:03;-4.20;99.90
28654;DHT22;24320;56.980;24.336;2024-03-07T06:01:31;-4.10;99.90
28654;DHT22;24320;56.980;24.336;2024-03-07T06:04:02;-3.90;99.90
28654;DHT22;24320;56.980;24.336;2024-03-07T06:06:29;-3.80;99.90
28654;DHT22;24320;56.980;24.336;2024-03-07T06:09:00;-3.70;99.90
28654;DHT22;24320;56.980;24.336;2024-03-07T06:11:27;-3.50;99.90
28654;DHT22;24320;56.980;24.336;2024-03-07T06:13:54;-3.50;99.90
28654;DHT22;24320;56.980;24.336;2024-03-07T06:16:21;-3.30;99.90
28654;DHT22;24320;56.980;24.336;2024-03-07T06:18:48;-3.20;99.90
28654;DHT22;24320;56.980;24.336;2024-03-07T06:21:15;-3.10;99.90
28654;DHT22;24320;56.980;24.336;2024-03-07T06:23:42;-2.80;99.90
28654;DHT22;24320;56.980;24.336;2024-03-07T06:26:13;-2.60;99.90
28654;DHT22;24320;56.980;24.336;2024-03-07T06:28:43;-2.30;99.90
28654;DHT22;24320;56.980;24.336;2024-03-07T06:31:12;-1.90;99.90
28654;DHT22;24320;56.980;24.336;2024-03-07T06:33:39;-1.50;99.90
28654;DHT22;24320;56.980;24.336;2024-03-07T06:36:06;-1.10;99.90
28654;DHT22;24320;56.980;24.336;2024-03-07T06:38:33;-0.80;99.90
28654;DHT22;24320;56.980;24.336;2024-03-07T06:41:00;-0.60;99.90
28654;DHT22;24320;56.980;24.336;2024-03-07T06:43:27;-0.40;99.90
28654;DHT22;24320;56.980;24.336;2024-03-07T06:45:54;-0.30;99.90
28654;DHT22;24320;56.980;24.336;2024-03-07T06:48:21;-0.20;99.90
28654;DHT22;24320;56.980;24.336;2024-03-07T06:50:48;-0.20;99.90
28654;DHT22;24320;56.980;24.336;2024-03-07T06:53:15;-0.20;99.90
28654;DHT22;24320;56.980;24.336;2024-03-07T06:55:42;-0.20;99.90
28654;DHT22;24320;56.980;24.336;2024-03-07T06:58:09;-0.10;99.90
28654;DHT22;24320;56.980;24.336;2024-03-07T07:00:37;-0.10;99.90
28654;DHT22;24320;56.980;24.336;2024-03-07T07:03:05;0.00;99.90
28654;DHT22;24320;56.980;24.336;2024-03-07T07:05:33;0.10;99.90
28654;DHT22;24320;56.980;24.336;2024-03-07T07:08:01;0.30;99.90
28654;DHT22;24320;56.980;24.336;2024-03-07T07:10:29;0.40;99.90
28654;DHT22;24320;56.980;24.336;2024-03-07T07:12:56;0.50;99.90
28654;DHT22;24320;56.980;24.336;2024-03-07T07:15:23;0.60;99.90
28654;DHT22;24320;56.980;24.336;2024-03-07T07:17:50;0.80;99.90
28654;DHT22;24320;56.980;24.336;2024-03-07T07:20:19;0.90;99.90
28654;DHT22;24320;56.980;24.336;2024-03-07T07:22:47;1.00;99.90
28654;DHT22;24320;56.980;24.336;2024-03-07T07:25:14;1.10;99.90
28654;DHT22;24320;56.980;24.336;2024-03-07T07:27:47;1.30;99.90
28654;DHT22;24320;56.980;24.336;2024-03-07T07:30:16;1.60;99.90
28654;DHT22;24320;56.980;24.336;2024-03-07T07:32:44;1.80;99.90
28654;DHT22;24320;56.980;24.336;2024-03-07T07:35:15;1.90;99.90
28654;DHT22;24320;56.980;24.336;2024-03-07T07:37:44;1.80;99.90
28654;DHT22;24320;56.980;24.336;2024-03-07T07:40:20;1.70;99.90
28654;DHT22;24320;56.980;24.336;2024-03-07T07:42:51;1.60;99.90
28654;DHT22;24320;56.980;24.336;2024-03-07T07:45:20;1.60;99.90
28654;DHT22;24320;56.980;24.336;2024-03-07T07:47:49;1.70;99.90
28654;DHT22;24320;56.980;24.336;2024-03-07T07:50:20;1.80;99.90
28654;DHT22;24320;56.980;24.336;2024-03-07T07:52:59;1.70;99.90
28654;DHT22;24320;56.980;24.336;2024-03-07T07:55:27;1.60;99.90
28654;DHT22;24320;56.980;24.336;2024-03-07T07:57:56;1.50;99.90
28654;DHT22;24320;56.980;24.336;2024-03-07T08:00:28;1.50;99.90
28654;DHT22;24320;56.980;24.336;2024-03-07T08:03:04;1.50;99.90
28654;DHT22;24320;56.980;24.336;2024-03-07T08:05:35;1.60;99.90
28654;DHT22;24320;56.980;24.336;2024-03-07T08:08:07;1.70;99.90
28654;DHT22;24320;56.980;24.336;2024-03-07T08:10:37;1.80;99.90
28654;DHT22;24320;56.980;24.336;2024-03-07T08:13:05;2.00;99.90
28654;DHT22;24320;56.980;24.336;2024-03-07T08:15:37;2.10;99.90
28654;DHT22;24320;56.980;24.336;2024-03-07T08:18:04;2.10;99.90
28654;DHT22;24320;56.980;24.336;2024-03-07T08:20:39;2.20;99.90
28654;DHT22;24320;56.980;24.336;2024-03-07T08:23:08;2.20;99.90
28654;DHT22;24320;56.980;24.336;2024-03-07T08:25:36;2.30;99.90
28654;DHT22;24320;56.980;24.336;2024-03-07T08:28:05;2.30;99.90
28654;DHT22;24320;56.980;24.336;2024-03-07T08:30:33;2.40;99.90
28654;DHT22;24320;56.980;24.336;2024-03-07T08:33:00;2.30;99.90
28654;DHT22;24320;56.980;24.336;2024-03-07T08:35:32;2.40;99.90
28654;DHT22;24320;56.980;24.336;2024-03-07T08:38:00;2.60;99.90
28654;DHT22;24320;56.980;24.336;2024-03-07T08:40:29;2.90;99.90
28654;DHT22;24320;56.980;24.336;2024-03-07T08:43:00;3.00;99.90
28654;DHT22;24320;56.980;24.336;2024-03-07T08:45:28;2.90;99.90
28654;DHT22;24320;56.980;24.336;2024-03-07T08:47:57;2.80;99.90
28654;DHT22;24320;56.980;24.336;2024-03-07T08:50:27;2.70;99.90
28654;DHT22;24320;56.980;24.336;2024-03-07T08:52:55;2.70;99.90
28654;DHT22;24320;56.980;24.336;2024-03-07T08:55:25;2.90;99.90
28654;DHT22;24320;56.980;24.336;2024-03-07T08:57:53;2.80;99.90
28654;DHT22;24320;56.980;24.336;2024-03-07T09:00:21;2.70;99.90
28654;DHT22;24320;56.980;24.336;2024-03-07T09:02:55;2.70;99.90
28654;DHT22;24320;56.980;24.336;2024-03-07T09:05:27;2.80;99.90
28654;DHT22;24320;56.980;24.336;2024-03-07T09:07:55;2.80;99.90
28654;DHT22;24320;56.980;24.336;2024-03-07T09:10:22;2.80;99.90
28654;DHT22;24320;56.980;24.336;2024-03-07T09:12:52;2.70;99.90
28654;DHT22;24320;56.980;24.336;2024-03-07T09:15:21;2.70;99.90
28654;DHT22;24320;56.980;24.336;2024-03-07T09:17:50;2.60;99.90
28654;DHT22;24320;56.980;24.336;2024-03-07T09:20:19;2.40;99.90
28654;DHT22;24320;56.980;24.336;2024-03-07T09:22:47;2.30;99.90
28654;DHT22;24320;56.980;24.336;2024-03-07T09:25:16;2.30;99.90
28654;DHT22;24320;56.980;24.336;2024-03-07T09:27:44;2.30;99.90
28654;DHT22;24320;56.980;24.336;2024-03-07T09:30:11;2.30;99.90
28654;DHT22;24320;56.980;24.336;2024-03-07T09:32:43;2.50;99.90
28654;DHT22;24320;56.980;24.336;2024-03-07T09:35:10;2.70;99.90
28654;DHT22;24320;56.980;24.336;2024-03-07T09:37:42;2.90;99.90
28654;DHT22;24320;56.980;24.336;2024-03-07T09:40:11;3.00;99.90
28654;DHT22;24320;56.980;24.336;2024-03-07T09:42:49;2.90;99.90
28654;DHT22;24320;56.980;24.336;2024-03-07T09:45:20;2.80;99.90
28654;DHT22;24320;56.980;24.336;2024-03-07T09:47:50;2.80;99.90
28654;DHT22;24320;56.980;24.336;2024-03-07T09:50:21;3.00;99.90
28654;DHT22;24320;56.980;24.336;2024-03-07T09:52:55;3.10;99.90
28654;DHT22;24320;56.980;24.336;2024-03-07T09:55:23;3.10;99.90
28654;DHT22;24320;56.980;24.336;2024-03-07T09:57:54;3.10;99.90
28654;DHT22;24320;56.980;24.336;2024-03-07T10:00:24;3.00;99.90
28654;DHT22;24320;56.980;24.336;2024-03-07T10:02:58;2.80;99.90
28654;DHT22;24320;56.980;24.336;2024-03-07T10:05:27;2.60;99.90
28654;DHT22;24320;56.980;24.336;2024-03-07T10:07:55;2.70;99.90
28654;DHT22;24320;56.980;24.336;2024-03-07T10:10:23;2.80;99.90
28654;DHT22;24320;56.980;24.336;2024-03-07T10:12:51;3.10;99.90
28654;DHT22;24320;56.980;24.336;2024-03-07T10:15:20;3.40;99.90
28654;DHT22;24320;56.980;24.336;2024-03-07T10:17:48;3.30;99.90
28654;DHT22;24320;56.980;24.336;2024-03-07T10:20:18;3.30;99.90
28654;DHT22;24320;56.980;24.336;2024-03-07T10:22:50;3.30;99.90
28654;DHT22;24320;56.980;24.336;2024-03-07T10:25:18;3.20;99.90
28654;DHT22;24320;56.980;24.336;2024-03-07T10:27:46;3.10;99.90
28654;DHT22;24320;56.980;24.336;2024-03-07T10:30:16;2.90;99.90
28654;DHT22;24320;56.980;24.336;2024-03-07T10:32:56;2.80;99.90
28654;DHT22;24320;56.980;24.336;2024-03-07T10:35:25;2.70;99.90
28654;DHT22;24320;56.980;24.336;2024-03-07T10:37:56;2.70;99.90
28654;DHT22;24320;56.980;24.336;2024-03-07T10:40:26;2.90;99.90
28654;DHT22;24320;56.980;24.336;2024-03-07T10:42:57;2.90;99.90
28654;DHT22;24320;56.980;24.336;2024-03-07T10:45:28;2.90;99.90
28654;DHT22;24320;56.980;24.336;2024-03-07T10:47:57;2.90;99.90
28654;DHT22;24320;56.980;24.336;2024-03-07T11:01:20;2.70;99.90
28654;DHT22;24320;56.980;24.336;2024-03-07T11:03:51;2.70;99.90
28654;DHT22;24320;56.980;24.336;2024-03-07T11:06:19;2.50;99.90
28654;DHT22;24320;56.980;24.336;2024-03-07T11:08:49;2.30;99.90
28654;DHT22;24320;56.980;24.336;2024-03-07T11:11:19;2.30;99.90
28654;DHT22;24320;56.980;24.336;2024-03-07T11:13:48;2.30;99.90
28654;DHT22;24320;56.980;24.336;2024-03-07T11:16:16;2.20;99.90
28654;DHT22;24320;56.980;24.336;2024-03-07T11:21:56;2.20;99.90
28654;DHT22;24320;56.980;24.336;2024-03-07T11:24:31;2.30;99.90
28654;DHT22;24320;56.980;24.336;2024-03-07T11:27:03;2.30;99.90
28654;DHT22;24320;56.980;24.336;2024-03-07T11:29:40;2.40;99.90
28654;DHT22;24320;56.980;24.336;2024-03-07T11:32:11;2.60;99.90
28654;DHT22;24320;56.980;24.336;2024-03-07T11:34:39;2.60;99.90
28654;DHT22;24320;56.980;24.336;2024-03-07T11:37:09;2.30;99.90
28654;DHT22;24320;56.980;24.336;2024-03-07T11:39:45;2.20;99.90
28654;DHT22;24320;56.980;24.336;2024-03-07T11:44:49;2.10;99.90
28654;DHT22;24320;56.980;24.336;2024-03-07T11:47:18;2.10;99.90
28654;DHT22;24320;56.980;24.336;2024-03-07T12:00:42;1.90;99.90
28654;DHT22;24320;56.980;24.336;2024-03-07T12:03:12;1.80;99.90
28654;DHT22;24320;56.980;24.336;2024-03-07T12:05:41;1.70;99.90
28654;DHT22;24320;56.980;24.336;2024-03-07T12:08:09;1.60;99.90
28654;DHT22;24320;56.980;24.336;2024-03-07T12:10:42;1.60;99.90
28654;DHT22;24320;56.980;24.336;2024-03-07T12:13:17;1.60;99.90
28654;DHT22;24320;56.980;24.336;2024-03-07T12:15:46;1.50;99.90
28654;DHT22;24320;56.980;24.336;2024-03-07T12:18:13;1.50;99.90
28654;DHT22;24320;56.980;24.336;2024-03-07T12:20:43;1.50;99.90
28654;DHT22;24320;56.980;24.336;2024-03-07T12:23:13;1.50;99.90
28654;DHT22;24320;56.980;24.336;2024-03-07T12:25:46;1.40;99.90
28654;DHT22;24320;56.980;24.336;2024-03-07T12:28:14;1.30;99.90
28654;DHT22;24320;56.980;24.336;2024-03-07T12:30:54;1.30;99.90
28654;DHT22;24320;56.980;24.336;2024-03-07T12:33:21;1.30;99.90
28654;DHT22;24320;56.980;24.336;2024-03-07T12:35:55;1.20;99.90
28654;DHT22;24320;56.980;24.336;2024-03-07T12:38:33;1.20;99.90
28654;DHT22;24320;56.980;24.336;2024-03-07T12:41:05;1.20;99.90
28654;DHT22;24320;56.980;24.336;2024-03-07T12:43:34;1.10;99.90
28654;DHT22;24320;56.980;24.336;2024-03-07T12:46:01;1.10;99.90
28654;DHT22;24320;56.980;24.336;2024-03-07T12:48:31;1.10;99.90
28654;DHT22;24320;56.980;24.336;2024-03-07T12:50:58;1.10;99.90
28654;DHT22;24320;56.980;24.336;2024-03-07T12:53:28;1.20;99.90
28654;DHT22;24320;56.980;24.336;2024-03-07T12:55:57;1.30;99.90
28654;DHT22;24320;56.980;24.336;2024-03-07T12:58:24;1.30;99.90
28654;DHT22;24320;56.980;24.336;2024-03-07T13:00:53;1.10;99.90
28654;DHT22;24320;56.980;24.336;2024-03-07T13:03:24;1.10;99.90
28654;DHT22;24320;56.980;24.336;2024-03-07T13:05:57;1.00;99.90
28654;DHT22;24320;56.980;24.336;2024-03-07T13:08:28;1.00;99.90
28654;DHT22;24320;56.980;24.336;2024-03-07T13:10:59;0.90;99.90
28654;DHT22;24320;56.980;24.336;2024-03-07T13:13:28;0.90;99.90
28654;DHT22;24320;56.980;24.336;2024-03-07T13:15:55;0.80;99.90
28654;DHT22;24320;56.980;24.336;2024-03-07T13:18:22;0.80;99.90
28654;DHT22;24320;56.980;24.336;2024-03-07T13:20:50;0.90;99.90
28654;DHT22;24320;56.980;24.336;2024-03-07T13:23:17;1.00;99.90
28654;DHT22;24320;56.980;24.336;2024-03-07T13:25:44;1.10;99.90
28654;DHT22;24320;56.980;24.336;2024-03-07T13:28:15;1.10;99.90
28654;DHT22;24320;56.980;24.336;2024-03-07T13:30:51;1.10;99.90
28654;DHT22;24320;56.980;24.336;2024-03-07T13:33:21;1.00;99.90
28654;DHT22;24320;56.980;24.336;2024-03-07T13:35:51;0.80;99.90
28654;DHT22;24320;56.980;24.336;2024-03-07T13:38:19;0.70;99.90
28654;DHT22;24320;56.980;24.336;2024-03-07T13:40:46;0.70;99.90
28654;DHT22;24320;56.980;24.336;2024-03-07T13:43:13;0.70;99.90
28654;DHT22;24320;56.980;24.336;2024-03-07T13:45:41;0.80;99.90
28654;DHT22;24320;56.980;24.336;2024-03-07T13:48:11;0.80;99.90
28654;DHT22;24320;56.980;24.336;2024-03-07T13:50:42;0.80;99.90
28654;DHT22;24320;56.980;24.336;2024-03-07T13:53:26;0.50;99.90
28654;DHT22;24320;56.980;24.336;2024-03-07T13:59:13;0.20;99.90
28654;DHT22;24320;56.980;24.336;2024-03-07T14:05:08;-0.10;99.90
28654;DHT22;24320;56.980;24.336;2024-03-07T14:14:26;-0.10;99.90
28654;DHT22;24320;56.980;24.336;2024-03-07T14:31:08;-0.10;99.90
28654;DHT22;24320;56.980;24.336;2024-03-07T14:36:52;-0.10;99.90
28654;DHT22;24320;56.980;24.336;2024-03-07T14:39:20;-0.10;99.90
28654;DHT22;24320;56.980;24.336;2024-03-07T14:41:58;-0.10;99.90
28654;DHT22;24320;56.980;24.336;2024-03-07T14:44:31;-0.10;99.90
28654;DHT22;24320;56.980;24.336;2024-03-07T14:47:04;-0.10;99.90
28654;DHT22;24320;56.980;24.336;2024-03-07T14:49:34;0.00;99.90
28654;DHT22;24320;56.980;24.336;2024-03-07T14:52:01;0.00;99.90
28654;DHT22;24320;56.980;24.336;2024-03-07T14:54:31;0.00;99.90
28654;DHT22;24320;56.980;24.336;2024-03-07T14:56:59;0.00;99.90
28654;DHT22;24320;56.980;24.336;2024-03-07T14:59:28;-0.10;99.90
28654;DHT22;24320;56.980;24.336;2024-03-07T15:01:55;-0.20;99.90
28654;DHT22;24320;56.980;24.336;2024-03-07T15:04:22;-0.30;99.90
28654;DHT22;24320;56.980;24.336;2024-03-07T15:06:49;-0.30;99.90
28654;DHT22;24320;56.980;24.336;2024-03-07T15:09:20;-0.20;99.90
28654;DHT22;24320;56.980;24.336;2024-03-07T15:11:47;-0.20;99.90
28654;DHT22;24320;56.980;24.336;2024-03-07T15:14:14;-0.30;99.90
28654;DHT22;24320;56.980;24.336;2024-03-07T15:16:53;-0.40;99.90
28654;DHT22;24320;56.980;24.336;2024-03-07T15:19:19;-0.50;99.90
28654;DHT22;24320;56.980;24.336;2024-03-07T15:21:48;-0.80;99.90
28654;DHT22;24320;56.980;24.336;2024-03-07T15:24:19;-0.80;99.90
28654;DHT22;24320;56.980;24.336;2024-03-07T15:26:49;-0.90;99.90
28654;DHT22;24320;56.980;24.336;2024-03-07T15:29:17;-1.00;99.90
28654;DHT22;24320;56.980;24.336;2024-03-07T15:31:49;-1.10;99.90
28654;DHT22;24320;56.980;24.336;2024-03-07T15:34:16;-1.10;99.90
28654;DHT22;24320;56.980;24.336;2024-03-07T15:36:43;-1.10;99.90
28654;DHT22;24320;56.980;24.336;2024-03-07T15:39:10;-1.10;99.90
28654;DHT22;24320;56.980;24.336;2024-03-07T15:41:47;-1.10;99.90
28654;DHT22;24320;56.980;24.336;2024-03-07T15:44:14;-1.10;99.90
28654;DHT22;24320;56.980;24.336;2024-03-07T15:46:41;-1.10;99.90
28654;DHT22;24320;56.980;24.336;2024-03-07T15:49:08;-1.00;99.90
28654;DHT22;24320;56.980;24.336;2024-03-07T15:51:35;-1.00;99.90
28654;DHT22;24320;56.980;24.336;2024-03-07T15:54:02;-1.00;99.90
28654;DHT22;24320;56.980;24.336;2024-03-07T15:56:31;-1.00;99.90
28654;DHT22;24320;56.980;24.336;2024-03-07T15:58:58;-1.00;99.90
28654;DHT22;24320;56.980;24.336;2024-03-07T16:01:25;-0.90;99.90
28654;DHT22;24320;56.980;24.336;2024-03-07T16:03:52;-0.90;99.90
28654;DHT22;24320;56.980;24.336;2024-03-07T16:06:19;-0.90;99.90
28654;DHT22;24320;56.980;24.336;2024-03-07T16:08:48;-0.90;99.90
28654;DHT22;24320;56.980;24.336;2024-03-07T16:11:20;-0.90;99.90
28654;DHT22;24320;56.980;24.336;2024-03-07T16:13:51;-1.00;99.90
28654;DHT22;24320;56.980;24.336;2024-03-07T16:16:19;-0.90;99.90
28654;DHT22;24320;56.980;24.336;2024-03-07T16:18:47;-1.00;99.90
28654;DHT22;24320;56.980;24.336;2024-03-07T16:21:17;-1.00;99.90
28654;DHT22;24320;56.980;24.336;2024-03-07T16:23:44;-1.00;99.90
28654;DHT22;24320;56.980;24.336;2024-03-07T16:26:13;-1.00;99.90
28654;DHT22;24320;56.980;24.336;2024-03-07T16:28:43;-1.10;99.90
28654;DHT22;24320;56.980;24.336;2024-03-07T16:31:10;-1.10;99.90